sensor_id;sensor_type;location;lat;lon;timestamp;pressure;altitude;pressure_sealevel;temperature;humidity
16793;BME280;8513;42.662;23.350;2022-09-16T00:02:15;94416.63;;;22.72;41.81
16793;BME280;8513;42.662;23.350;2022-09-16T00:04:40;94422.22;;;22.87;41.90
16793;BME280;8513;42.662;23.350;2022-09-16T00:07:06;94405.91;;;22.72;42.06
16793;BME280;8513;42.662;23.350;2022-09-16T00:09:31;94406.16;;;22.71;42.49
16793;BME280;8513;42.662;23.350;2022-09-16T00:11:57;94413.22;;;22.77;42.18
16793;BME280;8513;42.662;23.350;2022-09-16T00:14:22;94409.72;;;22.76;42.28
16793;BME280;8513;42.662;23.350;2022-09-16T00:16:47;94411.59;;;22.76;42.15
16793;BME280;8513;42.662;23.350;2022-09-16T00:19:13;94417.59;;;22.66;42.50
16793;BME280;8513;42.662;23.350;2022-09-16T00:21:38;94411.13;;;22.50;43.18
16793;BME280;8513;42.662;23.350;2022-09-16T00:24:04;94408.53;;;22.38;43.59
16793;BME280;8513;42.662;23.350;2022-09-16T00:26:29;94417.47;;;22.44;43.38
16793;BME280;8513;42.662;23.350;2022-09-16T00:28:55;94409.63;;;22.54;43.12
16793;BME280;8513;42.662;23.350;2022-09-16T00:31:20;94411.31;;;22.60;42.62
16793;BME280;8513;42.662;23.350;2022-09-16T00:33:45;94417.16;;;22.40;43.15
16793;BME280;8513;42.662;23.350;2022-09-16T00:36:14;94413.91;;;22.55;42.58
16793;BME280;8513;42.662;23.350;2022-09-16T00:38:41;94413.72;;;22.45;42.60
16793;BME280;8513;42.662;23.350;2022-09-16T00:41:07;94407.91;;;22.48;42.53
16793;BME280;8513;42.662;23.350;2022-09-16T00:44:06;94412.69;;;22.46;42.70
16793;BME280;8513;42.662;23.350;2022-09-16T00:46:51;94419.75;;;22.52;42.42
16793;BME280;8513;42.662;23.350;2022-09-16T00:49:24;94410.00;;;22.46;42.41
16793;BME280;8513;42.662;23.350;2022-09-16T00:51:55;94411.72;;;22.52;43.09
16793;BME280;8513;42.662;23.350;2022-09-16T00:54:22;94410.13;;;22.39;43.00
16793;BME280;8513;42.662;23.350;2022-09-16T00:56:50;94421.13;;;22.26;43.57
16793;BME280;8513;42.662;23.350;2022-09-16T00:59:24;94427.88;;;22.29;43.82
16793;BME280;8513;42.662;23.350;2022-09-16T01:02:16;94440.78;;;22.32;43.81
16793;BME280;8513;42.662;23.350;2022-09-16T01:04:50;94434.31;;;22.28;43.29
16793;BME280;8513;42.662;23.350;2022-09-16T01:07:26;94425.47;;;22.27;43.42
16793;BME280;8513;42.662;23.350;2022-09-16T01:09:54;94415.22;;;22.12;44.08
16793;BME280;8513;42.662;23.350;2022-09-16T01:12:20;94428.94;;;22.16;43.79
16793;BME280;8513;42.662;23.350;2022-09-16T01:14:45;94418.81;;;22.18;43.36
16793;BME280;8513;42.662;23.350;2022-09-16T01:30:45;94447.00;;;22.20;43.17
16793;BME280;8513;42.662;23.350;2022-09-16T01:33:21;94439.34;;;22.24;43.43
16793;BME280;8513;42.662;23.350;2022-09-16T01:43:56;94419.44;;;22.08;43.38
16793;BME280;8513;42.662;23.350;2022-09-16T01:49:24;94425.00;;;22.18;42.86
16793;BME280;8513;42.662;23.350;2022-09-16T01:51:52;94418.50;;;22.14;43.24
16793;BME280;8513;42.662;23.350;2022-09-16T01:54:34;94426.22;;;21.99;44.02
16793;BME280;8513;42.662;23.350;2022-09-16T01:57:37;94428.63;;;22.12;43.51
16793;BME280;8513;42.662;23.350;2022-09-16T02:00:09;94421.28;;;22.08;43.70
16793;BME280;8513;42.662;23.350;2022-09-16T02:05:21;94403.47;;;22.13;43.59
16793;BME280;8513;42.662;23.350;2022-09-16T02:07:53;94404.78;;;22.11;43.53
16793;BME280;8513;42.662;23.350;2022-09-16T02:10:34;94417.19;;;22.17;42.92
16793;BME280;8513;42.662;23.350;2022-09-16T02:13:10;94405.22;;;22.08;43.05
16793;BME280;8513;42.662;23.350;2022-09-16T02:15:41;94411.63;;;22.18;42.84
16793;BME280;8513;42.662;23.350;2022-09-16T02:18:10;94405.31;;;22.13;43.02
16793;BME280;8513;42.662;23.350;2022-09-16T02:20:39;94405.22;;;22.19;43.31
16793;BME280;8513;42.662;23.350;2022-09-16T02:23:14;94404.84;;;22.16;43.12
16793;BME280;8513;42.662;23.350;2022-09-16T02:25:44;94400.97;;;21.95;43.90
16793;BME280;8513;42.662;23.350;2022-09-16T02:28:12;94387.13;;;21.98;43.67
16793;BME280;8513;42.662;23.350;2022-09-16T02:30:42;94417.00;;;22.07;43.61
16793;BME280;8513;42.662;23.350;2022-09-16T02:33:11;94398.69;;;22.15;42.49
16793;BME280;8513;42.662;23.350;2022-09-16T02:35:40;94424.22;;;22.06;43.45
16793;BME280;8513;42.662;23.350;2022-09-16T02:38:10;94424.91;;;22.01;43.41
16793;BME280;8513;42.662;23.350;2022-09-16T02:40:46;94417.16;;;22.00;43.76
16793;BME280;8513;42.662;23.350;2022-09-16T02:43:13;94433.44;;;21.98;43.43
16793;BME280;8513;42.662;23.350;2022-09-16T02:46:00;94435.63;;;22.01;43.37
16793;BME280;8513;42.662;23.350;2022-09-16T02:54:01;94426.31;;;22.04;43.19
16793;BME280;8513;42.662;23.350;2022-09-16T02:56:33;94420.38;;;22.02;43.20
16793;BME280;8513;42.662;23.350;2022-09-16T02:59:01;94426.22;;;21.99;43.33
16793;BME280;8513;42.662;23.350;2022-09-16T03:01:29;94420.97;;;22.04;43.00
16793;BME280;8513;42.662;23.350;2022-09-16T03:03:58;94438.09;;;22.03;43.21
16793;BME280;8513;42.662;23.350;2022-09-16T03:06:25;94437.53;;;21.89;43.81
16793;BME280;8513;42.662;23.350;2022-09-16T03:08:54;94446.72;;;21.93;43.79
16793;BME280;8513;42.662;23.350;2022-09-16T03:30:59;94458.94;;;21.89;45.66
16793;BME280;8513;42.662;23.350;2022-09-16T03:34:31;94452.22;;;21.87;46.11
16793;BME280;8513;42.662;23.350;2022-09-16T03:36:41;94442.09;;;21.77;46.69
16793;BME280;8513;42.662;23.350;2022-09-16T03:39:09;94437.22;;;21.74;46.80
16793;BME280;8513;42.662;23.350;2022-09-16T03:41:36;94437.09;;;21.57;47.24
16793;BME280;8513;42.662;23.350;2022-09-16T03:44:02;94436.75;;;21.53;47.33
16793;BME280;8513;42.662;23.350;2022-09-16T03:46:28;94436.88;;;21.58;47.07
16793;BME280;8513;42.662;23.350;2022-09-16T03:48:54;94421.63;;;21.59;46.90
16793;BME280;8513;42.662;23.350;2022-09-16T03:51:21;94421.28;;;21.55;47.04
16793;BME280;8513;42.662;23.350;2022-09-16T03:53:46;94426.06;;;21.53;47.08
16793;BME280;8513;42.662;23.350;2022-09-16T03:56:12;94424.31;;;21.47;47.38
16793;BME280;8513;42.662;23.350;2022-09-16T03:58:37;94422.06;;;21.32;47.65
16793;BME280;8513;42.662;23.350;2022-09-16T04:01:02;94423.97;;;21.44;47.66
16793;BME280;8513;42.662;23.350;2022-09-16T04:03:28;94422.13;;;21.44;47.38
16793;BME280;8513;42.662;23.350;2022-09-16T04:05:54;94430.63;;;21.41;47.47
16793;BME280;8513;42.662;23.350;2022-09-16T04:08:20;94453.28;;;21.39;47.40
16793;BME280;8513;42.662;23.350;2022-09-16T04:10:56;94464.19;;;21.25;47.88
16793;BME280;8513;42.662;23.350;2022-09-16T04:13:22;94466.13;;;21.30;47.27
16793;BME280;8513;42.662;23.350;2022-09-16T04:15:48;94465.22;;;21.36;47.15
16793;BME280;8513;42.662;23.350;2022-09-16T04:18:14;94468.94;;;21.35;47.16
16793;BME280;8513;42.662;23.350;2022-09-16T04:20:39;94472.09;;;21.44;46.74
16793;BME280;8513;42.662;23.350;2022-09-16T04:23:04;94471.88;;;21.45;46.54
16793;BME280;8513;42.662;23.350;2022-09-16T04:25:30;94480.38;;;21.54;46.17
16793;BME280;8513;42.662;23.350;2022-09-16T04:27:55;94491.03;;;21.30;47.26
16793;BME280;8513;42.662;23.350;2022-09-16T04:30:21;94488.00;;;21.27;47.69
16793;BME280;8513;42.662;23.350;2022-09-16T04:32:46;94484.06;;;21.29;47.68
16793;BME280;8513;42.662;23.350;2022-09-16T04:35:12;94486.31;;;21.44;47.96
16793;BME280;8513;42.662;23.350;2022-09-16T04:37:37;94491.31;;;21.52;48.27
16793;BME280;8513;42.662;23.350;2022-09-16T04:40:03;94478.28;;;21.44;47.76
16793;BME280;8513;42.662;23.350;2022-09-16T04:42:29;94478.28;;;21.44;47.66
16793;BME280;8513;42.662;23.350;2022-09-16T04:44:54;94473.63;;;21.51;47.29
16793;BME280;8513;42.662;23.350;2022-09-16T04:47:19;94471.06;;;21.45;47.67
16793;BME280;8513;42.662;23.350;2022-09-16T04:49:45;94471.88;;;21.45;47.37
16793;BME280;8513;42.662;23.350;2022-09-16T04:52:10;94485.50;;;21.55;46.21
16793;BME280;8513;42.662;23.350;2022-09-16T04:54:36;94479.91;;;21.45;47.75
16793;BME280;8513;42.662;23.350;2022-09-16T04:57:01;94484.63;;;21.31;47.75
16793;BME280;8513;42.662;23.350;2022-09-16T04:59:26;94487.00;;;21.40;47.93
16793;BME280;8513;42.662;23.350;2022-09-16T05:01:52;94490.22;;;21.18;48.33
16793;BME280;8513;42.662;23.350;2022-09-16T05:04:18;94482.31;;;21.23;47.61
16793;BME280;8513;42.662;23.350;2022-09-16T05:06:43;94475.84;;;21.43;47.17
16793;BME280;8513;42.662;23.350;2022-09-16T05:09:10;94476.97;;;21.23;48.74
16793;BME280;8513;42.662;23.350;2022-09-16T05:11:38;94474.69;;;21.39;48.22
16793;BME280;8513;42.662;23.350;2022-09-16T05:14:07;94481.66;;;21.40;48.32
16793;BME280;8513;42.662;23.350;2022-09-16T05:16:33;94474.31;;;21.58;47.30
16793;BME280;8513;42.662;23.350;2022-09-16T05:18:59;94473.50;;;21.70;46.80
16793;BME280;8513;42.662;23.350;2022-09-16T05:21:26;94478.03;;;21.81;46.76
16793;BME280;8513;42.662;23.350;2022-09-16T05:23:53;94471.22;;;22.14;46.09
16793;BME280;8513;42.662;23.350;2022-09-16T05:26:25;94456.31;;;22.30;45.84
16793;BME280;8513;42.662;23.350;2022-09-16T05:28:51;94456.63;;;22.33;45.37
16793;BME280;8513;42.662;23.350;2022-09-16T05:31:17;94455.19;;;22.42;46.17
16793;BME280;8513;42.662;23.350;2022-09-16T05:33:46;94466.00;;;22.48;44.22
16793;BME280;8513;42.662;23.350;2022-09-16T05:36:16;94459.06;;;22.63;43.94
16793;BME280;8513;42.662;23.350;2022-09-16T05:38:42;94452.31;;;22.61;45.05
16793;BME280;8513;42.662;23.350;2022-09-16T05:41:08;94447.06;;;22.66;44.17
16793;BME280;8513;42.662;23.350;2022-09-16T05:43:33;94444.78;;;22.58;44.52
16793;BME280;8513;42.662;23.350;2022-09-16T05:45:59;94438.94;;;22.61;45.01
16793;BME280;8513;42.662;23.350;2022-09-16T05:48:25;94451.19;;;22.57;43.74
16793;BME280;8513;42.662;23.350;2022-09-16T05:50:52;94446.97;;;22.61;42.97
16793;BME280;8513;42.662;23.350;2022-09-16T05:53:17;94436.69;;;22.70;43.41
16793;BME280;8513;42.662;23.350;2022-09-16T05:56:14;94454.19;;;22.89;43.56
16793;BME280;8513;42.662;23.350;2022-09-16T05:58:38;94455.31;;;22.93;41.96
16793;BME280;8513;42.662;23.350;2022-09-16T06:01:10;94457.06;;;22.99;41.39
16793;BME280;8513;42.662;23.350;2022-09-16T06:03:38;94458.53;;;23.07;40.70
16793;BME280;8513;42.662;23.350;2022-09-16T06:06:06;94439.50;;;23.08;40.92
16793;BME280;8513;42.662;23.350;2022-09-16T06:08:35;94444.94;;;23.14;42.86
16793;BME280;8513;42.662;23.350;2022-09-16T06:11:06;94455.94;;;23.29;41.04
16793;BME280;8513;42.662;23.350;2022-09-16T06:13:33;94455.03;;;23.40;40.49
16793;BME280;8513;42.662;23.350;2022-09-16T06:15:59;94448.75;;;23.51;39.80
16793;BME280;8513;42.662;23.350;2022-09-16T06:18:26;94452.25;;;23.52;40.76
16793;BME280;8513;42.662;23.350;2022-09-16T06:20:53;94454.19;;;23.56;39.91
16793;BME280;8513;42.662;23.350;2022-09-16T06:23:18;94441.38;;;23.42;39.73
16793;BME280;8513;42.662;23.350;2022-09-16T06:25:44;94439.88;;;23.51;39.39
16793;BME280;8513;42.662;23.350;2022-09-16T06:28:10;94443.56;;;23.45;39.55
16793;BME280;8513;42.662;23.350;2022-09-16T06:30:39;94442.75;;;23.44;39.89
16793;BME280;8513;42.662;23.350;2022-09-16T06:33:05;94443.22;;;23.41;38.73
16793;BME280;8513;42.662;23.350;2022-09-16T06:35:32;94436.41;;;23.50;38.23
16793;BME280;8513;42.662;23.350;2022-09-16T06:37:58;94444.88;;;23.42;38.59
16793;BME280;8513;42.662;23.350;2022-09-16T06:40:24;94450.84;;;23.49;39.23
16793;BME280;8513;42.662;23.350;2022-09-16T06:42:53;94448.03;;;23.56;38.21
16793;BME280;8513;42.662;23.350;2022-09-16T06:45:19;94454.25;;;23.62;38.12
16793;BME280;8513;42.662;23.350;2022-09-16T06:47:45;94451.16;;;23.70;38.19
16793;BME280;8513;42.662;23.350;2022-09-16T06:50:10;94451.97;;;23.70;37.89
16793;BME280;8513;42.662;23.350;2022-09-16T06:52:35;94451.63;;;23.84;37.44
16793;BME280;8513;42.662;23.350;2022-09-16T06:55:01;94444.66;;;23.83;37.07
16793;BME280;8513;42.662;23.350;2022-09-16T06:57:26;94448.16;;;23.83;37.83
16793;BME280;8513;42.662;23.350;2022-09-16T06:59:52;94450.25;;;23.98;37.99
16793;BME280;8513;42.662;23.350;2022-09-16T07:02:18;94457.84;;;24.06;37.65
16793;BME280;8513;42.662;23.350;2022-09-16T07:04:44;94450.59;;;24.07;36.91
16793;BME280;8513;42.662;23.350;2022-09-16T07:07:11;94455.03;;;23.96;36.94
16793;BME280;8513;42.662;23.350;2022-09-16T07:09:37;94454.59;;;24.04;36.95
16793;BME280;8513;42.662;23.350;2022-09-16T07:12:03;94457.84;;;24.06;36.77
16793;BME280;8513;42.662;23.350;2022-09-16T07:14:29;94466.06;;;24.16;36.53
16793;BME280;8513;42.662;23.350;2022-09-16T07:16:56;94461.50;;;24.17;36.75
16793;BME280;8513;42.662;23.350;2022-09-16T07:19:23;94450.03;;;24.27;37.07
16793;BME280;8513;42.662;23.350;2022-09-16T07:21:49;94457.50;;;24.19;36.90
16793;BME280;8513;42.662;23.350;2022-09-16T07:24:14;94452.78;;;24.32;36.55
16793;BME280;8513;42.662;23.350;2022-09-16T07:26:40;94450.53;;;24.24;38.36
16793;BME280;8513;42.662;23.350;2022-09-16T07:29:10;94447.69;;;24.30;38.21
16793;BME280;8513;42.662;23.350;2022-09-16T07:31:36;94449.75;;;24.45;37.13
16793;BME280;8513;42.662;23.350;2022-09-16T07:34:03;94446.97;;;24.40;37.51
16793;BME280;8513;42.662;23.350;2022-09-16T07:36:36;94448.13;;;24.44;37.94
16793;BME280;8513;42.662;23.350;2022-09-16T07:39:03;94451.28;;;24.41;36.86
16793;BME280;8513;42.662;23.350;2022-09-16T07:41:31;94443.66;;;24.55;36.76
16793;BME280;8513;42.662;23.350;2022-09-16T07:43:58;94428.69;;;24.64;36.78
16793;BME280;8513;42.662;23.350;2022-09-16T07:46:26;94416.94;;;24.70;37.72
16793;BME280;8513;42.662;23.350;2022-09-16T07:48:52;94415.50;;;24.90;35.95
16793;BME280;8513;42.662;23.350;2022-09-16T07:51:22;94413.16;;;24.98;35.84
16793;BME280;8513;42.662;23.350;2022-09-16T07:53:55;94424.63;;;25.16;36.06
16793;BME280;8513;42.662;23.350;2022-09-16T07:56:24;94414.03;;;25.41;36.05
16793;BME280;8513;42.662;23.350;2022-09-16T07:58:51;94426.19;;;25.12;35.13
16793;BME280;8513;42.662;23.350;2022-09-16T08:01:18;94415.97;;;25.14;35.51
16793;BME280;8513;42.662;23.350;2022-09-16T08:03:44;94415.13;;;25.40;35.85
16793;BME280;8513;42.662;23.350;2022-09-16T08:06:19;94408.44;;;25.48;35.78
16793;BME280;8513;42.662;23.350;2022-09-16T08:08:45;94411.47;;;25.57;35.71
16793;BME280;8513;42.662;23.350;2022-09-16T08:11:11;94407.44;;;25.59;35.16
16793;BME280;8513;42.662;23.350;2022-09-16T08:13:38;94415.06;;;25.72;34.80
16793;BME280;8513;42.662;23.350;2022-09-16T08:16:06;94406.03;;;25.94;34.72
16793;BME280;8513;42.662;23.350;2022-09-16T08:18:32;94399.66;;;26.15;34.15
16793;BME280;8513;42.662;23.350;2022-09-16T08:21:07;94399.47;;;26.43;34.23
16793;BME280;8513;42.662;23.350;2022-09-16T08:23:34;94390.81;;;26.40;33.68
16793;BME280;8513;42.662;23.350;2022-09-16T08:26:00;94390.94;;;26.81;33.61
16793;BME280;8513;42.662;23.350;2022-09-16T08:28:26;94386.09;;;26.99;33.19
16793;BME280;8513;42.662;23.350;2022-09-16T08:30:52;94390.66;;;26.93;32.78
16793;BME280;8513;42.662;23.350;2022-09-16T08:33:18;94382.81;;;26.56;33.18
16793;BME280;8513;42.662;23.350;2022-09-16T08:35:47;94390.38;;;26.64;33.19
16793;BME280;8513;42.662;23.350;2022-09-16T08:38:21;94387.72;;;26.84;33.93
16793;BME280;8513;42.662;23.350;2022-09-16T08:40:46;94376.38;;;26.93;33.71
16793;BME280;8513;42.662;23.350;2022-09-16T08:43:20;94376.91;;;26.90;33.42
16793;BME280;8513;42.662;23.350;2022-09-16T08:46:23;94377.19;;;26.98;33.25
16793;BME280;8513;42.662;23.350;2022-09-16T08:51:15;94368.84;;;26.95;33.98
16793;BME280;8513;42.662;23.350;2022-09-16T08:53:51;94363.97;;;26.81;33.06
16793;BME280;8513;42.662;23.350;2022-09-16T08:56:21;94360.19;;;27.03;32.71
16793;BME280;8513;42.662;23.350;2022-09-16T08:58:52;94359.91;;;27.04;32.46
16793;BME280;8513;42.662;23.350;2022-09-16T09:04:00;94363.94;;;27.07;33.31
16793;BME280;8513;42.662;23.350;2022-09-16T09:19:47;94375.28;;;27.40;33.89
16793;BME280;8513;42.662;23.350;2022-09-16T09:24:56;94385.50;;;27.58;32.51
16793;BME280;8513;42.662;23.350;2022-09-16T09:30:27;94367.09;;;27.76;32.30
16793;BME280;8513;42.662;23.350;2022-09-16T09:35:31;94369.31;;;27.53;32.65
16793;BME280;8513;42.662;23.350;2022-09-16T09:38:31;94373.66;;;27.39;32.78
16793;BME280;8513;42.662;23.350;2022-09-16T09:41:15;94370.16;;;27.13;33.13
16793;BME280;8513;42.662;23.350;2022-09-16T09:43:46;94364.22;;;27.16;32.91
16793;BME280;8513;42.662;23.350;2022-09-16T09:49:11;94385.28;;;27.09;35.12
16793;BME280;8513;42.662;23.350;2022-09-16T09:56:53;94393.09;;;27.10;35.22
16793;BME280;8513;42.662;23.350;2022-09-16T09:59:42;94393.63;;;27.12;36.37
16793;BME280;8513;42.662;23.350;2022-09-16T10:02:20;94395.28;;;27.08;35.49
16793;BME280;8513;42.662;23.350;2022-09-16T10:04:46;94400.94;;;27.06;35.71
16793;BME280;8513;42.662;23.350;2022-09-16T10:07:15;94411.44;;;26.98;36.34
16793;BME280;8513;42.662;23.350;2022-09-16T10:09:53;94421.69;;;26.80;37.15
16793;BME280;8513;42.662;23.350;2022-09-16T10:12:30;94435.41;;;26.64;39.93
16793;BME280;8513;42.662;23.350;2022-09-16T10:14:56;94447.72;;;26.39;39.61
16793;BME280;8513;42.662;23.350;2022-09-16T10:17:22;94461.63;;;26.15;40.17
16793;BME280;8513;42.662;23.350;2022-09-16T10:19:58;94479.28;;;25.91;40.53
16793;BME280;8513;42.662;23.350;2022-09-16T10:22:32;94500.06;;;25.63;39.63
16793;BME280;8513;42.662;23.350;2022-09-16T10:25:03;94523.06;;;25.44;40.33
16793;BME280;8513;42.662;23.350;2022-09-16T10:27:34;94540.63;;;25.19;43.03
16793;BME280;8513;42.662;23.350;2022-09-16T10:30:05;94569.44;;;25.02;45.29
16793;BME280;8513;42.662;23.350;2022-09-16T10:32:38;94609.56;;;24.59;47.68
16793;BME280;8513;42.662;23.350;2022-09-16T10:35:06;94623.06;;;23.92;48.90
16793;BME280;8513;42.662;23.350;2022-09-16T10:37:32;94625.44;;;23.71;50.91
16793;BME280;8513;42.662;23.350;2022-09-16T10:39:57;94623.56;;;23.60;52.33
16793;BME280;8513;42.662;23.350;2022-09-16T10:42:25;94628.78;;;23.50;53.67
16793;BME280;8513;42.662;23.350;2022-09-16T10:44:55;94624.72;;;23.47;54.51
16793;BME280;8513;42.662;23.350;2022-09-16T10:47:25;94618.06;;;23.50;54.34
16793;BME280;8513;42.662;23.350;2022-09-16T10:50:00;94625.53;;;23.48;54.20
16793;BME280;8513;42.662;23.350;2022-09-16T10:52:40;94633.59;;;23.48;55.36
16793;BME280;8513;42.662;23.350;2022-09-16T10:55:32;94619.19;;;23.71;55.24
16793;BME280;8513;42.662;23.350;2022-09-16T10:58:20;94614.22;;;23.46;53.85
16793;BME280;8513;42.662;23.350;2022-09-16T11:04:23;94559.44;;;23.42;53.89
16793;BME280;8513;42.662;23.350;2022-09-16T11:07:26;94550.00;;;23.73;53.46
16793;BME280;8513;42.662;23.350;2022-09-16T11:24:45;94463.22;;;26.06;43.80
16793;BME280;8513;42.662;23.350;2022-09-16T11:33:08;94432.97;;;26.67;39.67
16793;BME280;8513;42.662;23.350;2022-09-16T11:55:33;94385.81;;;29.79;30.20
16793;BME280;8513;42.662;23.350;2022-09-16T11:58:17;94388.38;;;29.95;30.38
16793;BME280;8513;42.662;23.350;2022-09-16T12:00:48;94377.13;;;29.82;30.07
16793;BME280;8513;42.662;23.350;2022-09-16T12:06:08;94374.34;;;30.11;29.40
16793;BME280;8513;42.662;23.350;2022-09-16T12:09:18;94373.81;;;30.33;29.01
16793;BME280;8513;42.662;23.350;2022-09-16T12:11:54;94377.13;;;30.49;29.35
16793;BME280;8513;42.662;23.350;2022-09-16T12:14:32;94380.22;;;30.43;29.34
16793;BME280;8513;42.662;23.350;2022-09-16T12:17:05;94378.78;;;30.88;28.90
16793;BME280;8513;42.662;23.350;2022-09-16T12:19:41;94390.25;;;30.80;29.41
16793;BME280;8513;42.662;23.350;2022-09-16T12:22:20;94398.16;;;30.39;30.51
16793;BME280;8513;42.662;23.350;2022-09-16T12:27:31;94406.94;;;29.19;32.89
16793;BME280;8513;42.662;23.350;2022-09-16T12:30:03;94413.88;;;28.46;35.96
16793;BME280;8513;42.662;23.350;2022-09-16T12:32:59;94416.44;;;28.17;37.97
16793;BME280;8513;42.662;23.350;2022-09-16T12:35:30;94415.72;;;27.96;39.03
16793;BME280;8513;42.662;23.350;2022-09-16T12:37:57;94416.28;;;27.78;39.55
16793;BME280;8513;42.662;23.350;2022-09-16T12:52:11;94441.13;;;26.88;43.11
16793;BME280;8513;42.662;23.350;2022-09-16T13:00:14;94476.16;;;26.09;45.08
16793;BME280;8513;42.662;23.350;2022-09-16T13:02:56;94485.66;;;25.42;47.80
16793;BME280;8513;42.662;23.350;2022-09-16T13:05:45;94499.19;;;25.20;48.53
16793;BME280;8513;42.662;23.350;2022-09-16T13:08:29;94502.38;;;25.17;49.66
16793;BME280;8513;42.662;23.350;2022-09-16T13:11:02;94502.78;;;24.77;51.62
16793;BME280;8513;42.662;23.350;2022-09-16T13:13:50;94516.97;;;24.72;51.42
16793;BME280;8513;42.662;23.350;2022-09-16T13:16:32;94526.84;;;24.89;52.68
16793;BME280;8513;42.662;23.350;2022-09-16T13:21:49;94528.81;;;24.32;53.96
16793;BME280;8513;42.662;23.350;2022-09-16T13:24:38;94527.97;;;23.88;57.82
16793;BME280;8513;42.662;23.350;2022-09-16T13:27:32;94525.81;;;24.07;56.89
16793;BME280;8513;42.662;23.350;2022-09-16T13:30:31;94523.13;;;24.29;55.46
16793;BME280;8513;42.662;23.350;2022-09-16T13:33:00;94512.38;;;24.29;56.54
16793;BME280;8513;42.662;23.350;2022-09-16T13:35:39;94504.16;;;24.35;58.08
16793;BME280;8513;42.662;23.350;2022-09-16T13:40:57;94471.41;;;25.84;52.64
16793;BME280;8513;42.662;23.350;2022-09-16T13:46:09;94447.88;;;25.69;55.52
16793;BME280;8513;42.662;23.350;2022-09-16T13:51:38;94392.81;;;26.66;52.65
16793;BME280;8513;42.662;23.350;2022-09-16T13:54:35;94383.09;;;26.54;53.11
16793;BME280;8513;42.662;23.350;2022-09-16T14:05:48;94385.38;;;28.69;43.38
16793;BME280;8513;42.662;23.350;2022-09-16T14:14:02;94410.03;;;25.86;50.05
16793;BME280;8513;42.662;23.350;2022-09-16T14:16:29;94419.34;;;25.73;48.57
16793;BME280;8513;42.662;23.350;2022-09-16T14:19:30;94442.53;;;25.74;50.34
16793;BME280;8513;42.662;23.350;2022-09-16T14:22:12;94457.88;;;26.22;48.31
16793;BME280;8513;42.662;23.350;2022-09-16T14:24:40;94461.03;;;26.08;47.66
16793;BME280;8513;42.662;23.350;2022-09-16T14:27:27;94442.16;;;25.56;48.68
16793;BME280;8513;42.662;23.350;2022-09-16T14:29:57;94446.09;;;25.43;49.38
16793;BME280;8513;42.662;23.350;2022-09-16T14:32:31;94434.56;;;25.15;49.88
16793;BME280;8513;42.662;23.350;2022-09-16T14:35:02;94414.09;;;24.82;51.09
16793;BME280;8513;42.662;23.350;2022-09-16T14:37:30;94414.00;;;24.72;52.77
16793;BME280;8513;42.662;23.350;2022-09-16T14:40:02;94403.25;;;24.72;51.65
16793;BME280;8513;42.662;23.350;2022-09-16T14:42:29;94398.66;;;24.72;50.89
16793;BME280;8513;42.662;23.350;2022-09-16T14:44:56;94404.72;;;24.57;51.66
16793;BME280;8513;42.662;23.350;2022-09-16T14:47:30;94404.97;;;24.56;51.57
16793;BME280;8513;42.662;23.350;2022-09-16T14:50:02;94409.28;;;24.35;50.39
16793;BME280;8513;42.662;23.350;2022-09-16T14:52:33;94409.28;;;24.35;50.54
16793;BME280;8513;42.662;23.350;2022-09-16T14:54:59;94404.47;;;24.37;50.88
16793;BME280;8513;42.662;23.350;2022-09-16T14:57:27;94397.94;;;24.28;49.90
16793;BME280;8513;42.662;23.350;2022-09-16T15:00:00;94405.78;;;24.56;49.01
16793;BME280;8513;42.662;23.350;2022-09-16T15:02:35;94414.03;;;24.77;49.31
16793;BME280;8513;42.662;23.350;2022-09-16T15:07:45;94422.50;;;24.63;48.78
16793;BME280;8513;42.662;23.350;2022-09-16T15:10:23;94424.44;;;24.68;48.40
16793;BME280;8513;42.662;23.350;2022-09-16T15:12:52;94428.03;;;24.79;47.59
16793;BME280;8513;42.662;23.350;2022-09-16T15:15:28;94417.47;;;24.99;47.92
16793;BME280;8513;42.662;23.350;2022-09-16T15:23:43;94415.44;;;24.08;48.28
16793;BME280;8513;42.662;23.350;2022-09-16T15:26:15;94409.25;;;24.08;48.58
16793;BME280;8513;42.662;23.350;2022-09-16T15:29:02;94361.75;;;23.86;48.91
16793;BME280;8513;42.662;23.350;2022-09-16T15:31:36;94326.41;;;23.72;48.93
16793;BME280;8513;42.662;23.350;2022-09-16T15:34:23;94311.44;;;23.76;48.13
16793;BME280;8513;42.662;23.350;2022-09-16T15:39:32;94316.38;;;23.85;48.09
16793;BME280;8513;42.662;23.350;2022-09-16T15:44:49;94308.22;;;24.02;48.57
16793;BME280;8513;42.662;23.350;2022-09-16T15:47:17;94311.09;;;23.95;49.12
16793;BME280;8513;42.662;23.350;2022-09-16T15:49:43;94315.53;;;23.84;49.98
16793;BME280;8513;42.662;23.350;2022-09-16T15:52:10;94319.28;;;23.83;49.90
16793;BME280;8513;42.662;23.350;2022-09-16T15:54:46;94315.06;;;23.70;50.27
16793;BME280;8513;42.662;23.350;2022-09-16T15:57:41;94323.94;;;23.71;51.40
16793;BME280;8513;42.662;23.350;2022-09-16T16:00:12;94327.06;;;23.63;54.24
16793;BME280;8513;42.662;23.350;2022-09-16T16:02:59;94324.75;;;23.49;55.24
16793;BME280;8513;42.662;23.350;2022-09-16T16:05:27;94308.53;;;23.39;55.69
16793;BME280;8513;42.662;23.350;2022-09-16T16:07:59;94333.84;;;23.26;56.25
16793;BME280;8513;42.662;23.350;2022-09-16T16:10:27;94337.09;;;23.28;56.47
16793;BME280;8513;42.662;23.350;2022-09-16T16:12:54;94291.84;;;23.15;56.85
16793;BME280;8513;42.662;23.350;2022-09-16T16:15:23;94300.88;;;22.92;58.01
16793;BME280;8513;42.662;23.350;2022-09-16T16:17:50;94302.09;;;23.01;57.57
16793;BME280;8513;42.662;23.350;2022-09-16T16:20:18;94303.25;;;23.05;57.61
16793;BME280;8513;42.662;23.350;2022-09-16T16:22:43;94291.66;;;22.83;58.14
16793;BME280;8513;42.662;23.350;2022-09-16T16:25:10;94289.34;;;22.75;57.61
16793;BME280;8513;42.662;23.350;2022-09-16T16:27:36;94296.50;;;22.52;58.17
16793;BME280;8513;42.662;23.350;2022-09-16T16:30:02;94281.47;;;22.34;58.92
16793;BME280;8513;42.662;23.350;2022-09-16T16:32:28;94288.47;;;22.35;58.89
16793;BME280;8513;42.662;23.350;2022-09-16T16:34:56;94286.94;;;22.39;58.66